sensor_id;sensor_type;location;lat;lon;timestamp;P1;durP1;ratioP1;P2;durP2;ratioP2
12906;SDS011;6521;50.498;8.474;2023-12-20T00:00:47;2.70;;;2.37;;
12906;SDS011;6521;50.498;8.474;2023-12-20T00:03:18;3.77;;;2.77;;
12906;SDS011;6521;50.498;8.474;2023-12-20T00:05:49;3.20;;;2.50;;
12906;SDS011;6521;50.498;8.474;2023-12-20T00:08:20;5.20;;;2.70;;
12906;SDS011;6521;50.498;8.474;2023-12-20T00:10:51;5.33;;;3.10;;
12906;SDS011;6521;50.498;8.474;2023-12-20T00:13:22;3.97;;;2.67;;
12906;SDS011;6521;50.498;8.474;2023-12-20T00:15:53;4.03;;;2.67;;
12906;SDS011;6521;50.498;8.474;2023-12-20T00:18:24;4.83;;;2.73;;
12906;SDS011;6521;50.498;8.474;2023-12-20T00:20:55;4.70;;;2.43;;
12906;SDS011;6521;50.498;8.474;2023-12-20T00:23:26;4.87;;;2.90;;
12906;SDS011;6521;50.498;8.474;2023-12-20T00:25:56;5.83;;;2.87;;
12906;SDS011;6521;50.498;8.474;2023-12-20T00:28:27;3.60;;;3.00;;
12906;SDS011;6521;50.498;8.474;2023-12-20T00:30:58;3.83;;;2.43;;
12906;SDS011;6521;50.498;8.474;2023-12-20T00:33:29;4.30;;;2.50;;
12906;SDS011;6521;50.498;8.474;2023-12-20T00:36:00;5.93;;;2.97;;
12906;SDS011;6521;50.498;8.474;2023-12-20T00:38:32;2.90;;;2.43;;
12906;SDS011;6521;50.498;8.474;2023-12-20T00:41:03;2.50;;;2.30;;
12906;SDS011;6521;50.498;8.474;2023-12-20T00:43:34;3.03;;;2.40;;
12906;SDS011;6521;50.498;8.474;2023-12-20T00:46:04;3.07;;;2.70;;
12906;SDS011;6521;50.498;8.474;2023-12-20T00:48:36;6.53;;;3.00;;
12906;SDS011;6521;50.498;8.474;2023-12-20T00:51:07;3.90;;;2.43;;
12906;SDS011;6521;50.498;8.474;2023-12-20T00:53:38;3.60;;;2.63;;
12906;SDS011;6521;50.498;8.474;2023-12-20T00:56:09;2.97;;;2.40;;
12906;SDS011;6521;50.498;8.474;2023-12-20T00:58:40;5.60;;;2.83;;
12906;SDS011;6521;50.498;8.474;2023-12-20T01:01:11;6.70;;;2.87;;
12906;SDS011;6521;50.498;8.474;2023-12-20T01:03:42;3.00;;;2.70;;
12906;SDS011;6521;50.498;8.474;2023-12-20T01:06:12;3.17;;;2.80;;
12906;SDS011;6521;50.498;8.474;2023-12-20T01:08:43;3.50;;;3.03;;
12906;SDS011;6521;50.498;8.474;2023-12-20T01:11:15;3.27;;;2.97;;
12906;SDS011;6521;50.498;8.474;2023-12-20T01:13:45;3.10;;;2.50;;
12906;SDS011;6521;50.498;8.474;2023-12-20T01:16:16;4.53;;;2.73;;
12906;SDS011;6521;50.498;8.474;2023-12-20T01:18:47;3.27;;;2.80;;
12906;SDS011;6521;50.498;8.474;2023-12-20T01:21:18;2.93;;;2.53;;
12906;SDS011;6521;50.498;8.474;2023-12-20T01:23:49;3.93;;;3.10;;
12906;SDS011;6521;50.498;8.474;2023-12-20T01:26:22;3.00;;;2.70;;
12906;SDS011;6521;50.498;8.474;2023-12-20T01:28:52;4.40;;;2.70;;
12906;SDS011;6521;50.498;8.474;2023-12-20T01:31:23;3.23;;;2.80;;
12906;SDS011;6521;50.498;8.474;2023-12-20T01:33:54;5.07;;;2.90;;
12906;SDS011;6521;50.498;8.474;2023-12-20T01:36:25;3.87;;;2.37;;
12906;SDS011;6521;50.498;8.474;2023-12-20T01:38:56;3.73;;;3.20;;
12906;SDS011;6521;50.498;8.474;2023-12-20T01:41:27;5.13;;;2.97;;
12906;SDS011;6521;50.498;8.474;2023-12-20T01:43:57;3.73;;;3.27;;
12906;SDS011;6521;50.498;8.474;2023-12-20T01:46:29;3.50;;;3.07;;
12906;SDS011;6521;50.498;8.474;2023-12-20T01:49:00;4.57;;;3.40;;
12906;SDS011;6521;50.498;8.474;2023-12-20T01:51:31;7.17;;;3.40;;
12906;SDS011;6521;50.498;8.474;2023-12-20T01:54:03;3.63;;;3.33;;
12906;SDS011;6521;50.498;8.474;2023-12-20T01:56:34;3.87;;;3.47;;
12906;SDS011;6521;50.498;8.474;2023-12-20T01:59:05;4.00;;;3.60;;
12906;SDS011;6521;50.498;8.474;2023-12-20T02:01:38;4.93;;;3.73;;
12906;SDS011;6521;50.498;8.474;2023-12-20T02:04:09;4.10;;;3.70;;
12906;SDS011;6521;50.498;8.474;2023-12-20T02:06:39;4.20;;;3.73;;
12906;SDS011;6521;50.498;8.474;2023-12-20T02:09:10;5.97;;;3.70;;
12906;SDS011;6521;50.498;8.474;2023-12-20T02:11:42;4.23;;;3.80;;
12906;SDS011;6521;50.498;8.474;2023-12-20T02:14:13;4.53;;;4.07;;
12906;SDS011;6521;50.498;8.474;2023-12-20T02:16:45;4.53;;;3.80;;
12906;SDS011;6521;50.498;8.474;2023-12-20T02:19:16;4.13;;;3.73;;
12906;SDS011;6521;50.498;8.474;2023-12-20T02:21:48;5.43;;;4.93;;
12906;SDS011;6521;50.498;8.474;2023-12-20T02:24:19;5.83;;;4.40;;
12906;SDS011;6521;50.498;8.474;2023-12-20T02:26:50;3.57;;;3.27;;
12906;SDS011;6521;50.498;8.474;2023-12-20T02:29:21;5.47;;;4.30;;
12906;SDS011;6521;50.498;8.474;2023-12-20T02:31:52;4.50;;;3.97;;
12906;SDS011;6521;50.498;8.474;2023-12-20T02:34:23;5.43;;;4.03;;
12906;SDS011;6521;50.498;8.474;2023-12-20T02:36:54;5.40;;;3.80;;
12906;SDS011;6521;50.498;8.474;2023-12-20T02:39:25;4.93;;;4.13;;
12906;SDS011;6521;50.498;8.474;2023-12-20T02:41:55;5.00;;;3.83;;
12906;SDS011;6521;50.498;8.474;2023-12-20T02:44:26;4.97;;;4.03;;
12906;SDS011;6521;50.498;8.474;2023-12-20T02:46:57;4.13;;;3.73;;
12906;SDS011;6521;50.498;8.474;2023-12-20T02:49:28;5.63;;;3.80;;
12906;SDS011;6521;50.498;8.474;2023-12-20T02:51:59;5.40;;;4.10;;
12906;SDS011;6521;50.498;8.474;2023-12-20T02:54:30;5.60;;;4.17;;
12906;SDS011;6521;50.498;8.474;2023-12-20T02:57:00;4.20;;;3.80;;
12906;SDS011;6521;50.498;8.474;2023-12-20T02:59:31;4.57;;;3.77;;
12906;SDS011;6521;50.498;8.474;2023-12-20T03:02:02;3.93;;;3.27;;
12906;SDS011;6521;50.498;8.474;2023-12-20T03:04:33;3.47;;;3.17;;
12906;SDS011;6521;50.498;8.474;2023-12-20T03:07:04;3.50;;;3.03;;
12906;SDS011;6521;50.498;8.474;2023-12-20T03:09:34;3.70;;;3.20;;
12906;SDS011;6521;50.498;8.474;2023-12-20T03:12:05;3.00;;;2.70;;
12906;SDS011;6521;50.498;8.474;2023-12-20T03:14:36;3.60;;;3.10;;
12906;SDS011;6521;50.498;8.474;2023-12-20T03:17:07;3.17;;;2.50;;
12906;SDS011;6521;50.498;8.474;2023-12-20T03:19:37;3.73;;;3.20;;
12906;SDS011;6521;50.498;8.474;2023-12-20T03:22:08;3.30;;;3.00;;
12906;SDS011;6521;50.498;8.474;2023-12-20T03:24:39;3.67;;;3.37;;
12906;SDS011;6521;50.498;8.474;2023-12-20T03:27:10;3.60;;;3.10;;
12906;SDS011;6521;50.498;8.474;2023-12-20T03:29:41;3.93;;;3.33;;
12906;SDS011;6521;50.498;8.474;2023-12-20T03:32:11;4.90;;;3.47;;
12906;SDS011;6521;50.498;8.474;2023-12-20T03:34:42;5.47;;;3.70;;
12906;SDS011;6521;50.498;8.474;2023-12-20T03:37:13;5.80;;;3.60;;
12906;SDS011;6521;50.498;8.474;2023-12-20T03:39:44;3.87;;;3.50;;
12906;SDS011;6521;50.498;8.474;2023-12-20T03:42:15;4.30;;;3.90;;
12906;SDS011;6521;50.498;8.474;2023-12-20T03:44:46;6.20;;;3.80;;
12906;SDS011;6521;50.498;8.474;2023-12-20T03:47:17;7.60;;;4.10;;
12906;SDS011;6521;50.498;8.474;2023-12-20T03:49:48;5.03;;;3.77;;
12906;SDS011;6521;50.498;8.474;2023-12-20T03:52:18;4.17;;;3.73;;
12906;SDS011;6521;50.498;8.474;2023-12-20T03:54:49;5.90;;;4.00;;
12906;SDS011;6521;50.498;8.474;2023-12-20T03:57:20;5.80;;;4.80;;
12906;SDS011;6521;50.498;8.474;2023-12-20T03:59:51;8.83;;;5.23;;
12906;SDS011;6521;50.498;8.474;2023-12-20T04:02:22;7.27;;;4.70;;
12906;SDS011;6521;50.498;8.474;2023-12-20T04:04:52;7.17;;;4.50;;
12906;SDS011;6521;50.498;8.474;2023-12-20T04:07:23;7.20;;;5.20;;
12906;SDS011;6521;50.498;8.474;2023-12-20T04:09:54;8.23;;;4.97;;
12906;SDS011;6521;50.498;8.474;2023-12-20T04:12:25;10.27;;;5.23;;
12906;SDS011;6521;50.498;8.474;2023-12-20T04:14:57;10.73;;;5.63;;
12906;SDS011;6521;50.498;8.474;2023-12-20T04:17:30;14.47;;;5.73;;
12906;SDS011;6521;50.498;8.474;2023-12-20T04:20:01;10.40;;;5.50;;
12906;SDS011;6521;50.498;8.474;2023-12-20T04:22:32;11.73;;;6.53;;
12906;SDS011;6521;50.498;8.474;2023-12-20T04:25:03;12.77;;;7.20;;
12906;SDS011;6521;50.498;8.474;2023-12-20T04:27:34;8.50;;;7.50;;
12906;SDS011;6521;50.498;8.474;2023-12-20T04:30:06;12.60;;;7.93;;
12906;SDS011;6521;50.498;8.474;2023-12-20T04:32:38;12.43;;;7.83;;
12906;SDS011;6521;50.498;8.474;2023-12-20T04:35:08;14.07;;;7.60;;
12906;SDS011;6521;50.498;8.474;2023-12-20T04:37:39;10.47;;;7.03;;
12906;SDS011;6521;50.498;8.474;2023-12-20T04:40:10;10.10;;;6.57;;
12906;SDS011;6521;50.498;8.474;2023-12-20T04:42:42;7.97;;;6.53;;
12906;SDS011;6521;50.498;8.474;2023-12-20T04:45:13;11.20;;;7.70;;
12906;SDS011;6521;50.498;8.474;2023-12-20T04:47:45;11.77;;;7.97;;
12906;SDS011;6521;50.498;8.474;2023-12-20T04:50:17;9.37;;;6.63;;
12906;SDS011;6521;50.498;8.474;2023-12-20T04:52:48;6.93;;;5.97;;
12906;SDS011;6521;50.498;8.474;2023-12-20T04:55:19;10.73;;;5.43;;
12906;SDS011;6521;50.498;8.474;2023-12-20T04:57:50;13.20;;;5.80;;
12906;SDS011;6521;50.498;8.474;2023-12-20T05:00:21;12.63;;;5.33;;
12906;SDS011;6521;50.498;8.474;2023-12-20T05:02:51;7.73;;;4.50;;
12906;SDS011;6521;50.498;8.474;2023-12-20T05:05:22;12.83;;;4.63;;
12906;SDS011;6521;50.498;8.474;2023-12-20T05:07:54;13.67;;;4.60;;
12906;SDS011;6521;50.498;8.474;2023-12-20T05:10:24;8.37;;;4.40;;
12906;SDS011;6521;50.498;8.474;2023-12-20T05:12:56;10.03;;;3.90;;
12906;SDS011;6521;50.498;8.474;2023-12-20T05:15:27;6.73;;;3.13;;
12906;SDS011;6521;50.498;8.474;2023-12-20T05:17:58;9.87;;;4.33;;
12906;SDS011;6521;50.498;8.474;2023-12-20T05:20:29;10.23;;;3.73;;
12906;SDS011;6521;50.498;8.474;2023-12-20T05:23:00;8.40;;;4.17;;
12906;SDS011;6521;50.498;8.474;2023-12-20T05:25:30;11.10;;;4.37;;
12906;SDS011;6521;50.498;8.474;2023-12-20T05:28:01;7.27;;;4.00;;
12906;SDS011;6521;50.498;8.474;2023-12-20T05:30:32;11.00;;;4.63;;
12906;SDS011;6521;50.498;8.474;2023-12-20T05:33:03;9.10;;;4.07;;
12906;SDS011;6521;50.498;8.474;2023-12-20T05:35:34;7.77;;;3.80;;
12906;SDS011;6521;50.498;8.474;2023-12-20T05:38:05;19.57;;;4.33;;
12906;SDS011;6521;50.498;8.474;2023-12-20T05:40:36;8.40;;;3.47;;
12906;SDS011;6521;50.498;8.474;2023-12-20T05:43:07;9.37;;;3.80;;
12906;SDS011;6521;50.498;8.474;2023-12-20T05:45:38;11.07;;;3.77;;
12906;SDS011;6521;50.498;8.474;2023-12-20T05:48:09;8.67;;;3.67;;
12906;SDS011;6521;50.498;8.474;2023-12-20T05:50:39;11.47;;;3.83;;
12906;SDS011;6521;50.498;8.474;2023-12-20T05:53:11;8.07;;;3.77;;
12906;SDS011;6521;50.498;8.474;2023-12-20T05:55:42;8.73;;;3.50;;
12906;SDS011;6521;50.498;8.474;2023-12-20T05:58:12;5.47;;;3.60;;
12906;SDS011;6521;50.498;8.474;2023-12-20T06:00:43;14.10;;;3.93;;
12906;SDS011;6521;50.498;8.474;2023-12-20T06:03:14;12.20;;;4.33;;
12906;SDS011;6521;50.498;8.474;2023-12-20T06:05:45;11.93;;;3.20;;
12906;SDS011;6521;50.498;8.474;2023-12-20T06:08:16;12.70;;;3.23;;
12906;SDS011;6521;50.498;8.474;2023-12-20T06:10:47;14.10;;;3.37;;
12906;SDS011;6521;50.498;8.474;2023-12-20T06:13:17;9.17;;;3.10;;
12906;SDS011;6521;50.498;8.474;2023-12-20T06:15:49;9.20;;;3.53;;
12906;SDS011;6521;50.498;8.474;2023-12-20T06:18:19;9.63;;;3.00;;
12906;SDS011;6521;50.498;8.474;2023-12-20T06:20:50;10.57;;;3.10;;
12906;SDS011;6521;50.498;8.474;2023-12-20T06:23:21;11.33;;;3.43;;
12906;SDS011;6521;50.498;8.474;2023-12-20T06:25:52;14.13;;;3.47;;
12906;SDS011;6521;50.498;8.474;2023-12-20T06:28:22;11.07;;;3.23;;
12906;SDS011;6521;50.498;8.474;2023-12-20T06:30:53;21.77;;;4.63;;
12906;SDS011;6521;50.498;8.474;2023-12-20T06:33:25;8.43;;;3.47;;
12906;SDS011;6521;50.498;8.474;2023-12-20T06:35:57;14.60;;;3.97;;
12906;SDS011;6521;50.498;8.474;2023-12-20T06:38:27;12.37;;;4.10;;
12906;SDS011;6521;50.498;8.474;2023-12-20T06:40:58;11.97;;;4.00;;
12906;SDS011;6521;50.498;8.474;2023-12-20T06:43:29;14.60;;;3.93;;
12906;SDS011;6521;50.498;8.474;2023-12-20T06:46:01;11.97;;;3.67;;
12906;SDS011;6521;50.498;8.474;2023-12-20T06:48:32;18.50;;;4.10;;
12906;SDS011;6521;50.498;8.474;2023-12-20T06:51:03;13.80;;;4.10;;
12906;SDS011;6521;50.498;8.474;2023-12-20T06:53:34;11.93;;;3.33;;
12906;SDS011;6521;50.498;8.474;2023-12-20T06:56:05;13.37;;;3.80;;
12906;SDS011;6521;50.498;8.474;2023-12-20T06:58:37;16.77;;;5.70;;
12906;SDS011;6521;50.498;8.474;2023-12-20T07:01:12;16.90;;;5.67;;
12906;SDS011;6521;50.498;8.474;2023-12-20T07:03:44;19.37;;;6.23;;
12906;SDS011;6521;50.498;8.474;2023-12-20T07:06:15;12.53;;;4.87;;
12906;SDS011;6521;50.498;8.474;2023-12-20T07:08:47;19.47;;;5.77;;
12906;SDS011;6521;50.498;8.474;2023-12-20T07:11:18;15.70;;;4.80;;
12906;SDS011;6521;50.498;8.474;2023-12-20T07:13:49;12.50;;;5.73;;
12906;SDS011;6521;50.498;8.474;2023-12-20T07:16:20;11.87;;;5.00;;
12906;SDS011;6521;50.498;8.474;2023-12-20T07:18:51;24.73;;;4.77;;
12906;SDS011;6521;50.498;8.474;2023-12-20T07:21:23;16.93;;;5.27;;
12906;SDS011;6521;50.498;8.474;2023-12-20T07:23:54;14.83;;;6.10;;
12906;SDS011;6521;50.498;8.474;2023-12-20T07:26:24;22.40;;;8.00;;
12906;SDS011;6521;50.498;8.474;2023-12-20T07:28:55;32.90;;;8.13;;
12906;SDS011;6521;50.498;8.474;2023-12-20T07:31:27;25.37;;;9.13;;
12906;SDS011;6521;50.498;8.474;2023-12-20T07:33:57;25.33;;;11.00;;
12906;SDS011;6521;50.498;8.474;2023-12-20T07:36:28;30.50;;;10.50;;
12906;SDS011;6521;50.498;8.474;2023-12-20T07:38:59;27.70;;;10.30;;
12906;SDS011;6521;50.498;8.474;2023-12-20T07:41:30;23.00;;;9.77;;
12906;SDS011;6521;50.498;8.474;2023-12-20T07:44:01;37.33;;;14.07;;
12906;SDS011;6521;50.498;8.474;2023-12-20T07:46:32;27.27;;;10.50;;
12906;SDS011;6521;50.498;8.474;2023-12-20T07:49:05;17.67;;;6.63;;
12906;SDS011;6521;50.498;8.474;2023-12-20T07:51:36;14.47;;;4.17;;
12906;SDS011;6521;50.498;8.474;2023-12-20T07:54:09;11.50;;;4.47;;
12906;SDS011;6521;50.498;8.474;2023-12-20T07:56:40;13.93;;;3.87;;
12906;SDS011;6521;50.498;8.474;2023-12-20T07:59:11;11.93;;;4.47;;
12906;SDS011;6521;50.498;8.474;2023-12-20T08:01:42;14.30;;;4.70;;
12906;SDS011;6521;50.498;8.474;2023-12-20T08:04:13;14.07;;;3.67;;
12906;SDS011;6521;50.498;8.474;2023-12-20T08:06:44;19.03;;;4.10;;
12906;SDS011;6521;50.498;8.474;2023-12-20T08:09:14;15.33;;;4.27;;
12906;SDS011;6521;50.498;8.474;2023-12-20T08:11:46;16.20;;;4.30;;
12906;SDS011;6521;50.498;8.474;2023-12-20T08:14:17;16.47;;;3.83;;
12906;SDS011;6521;50.498;8.474;2023-12-20T08:16:48;12.23;;;3.90;;
12906;SDS011;6521;50.498;8.474;2023-12-20T08:19:19;12.80;;;3.53;;
12906;SDS011;6521;50.498;8.474;2023-12-20T08:21:50;17.63;;;3.83;;
12906;SDS011;6521;50.498;8.474;2023-12-20T08:24:21;12.13;;;4.10;;
12906;SDS011;6521;50.498;8.474;2023-12-20T08:26:52;10.20;;;3.63;;
12906;SDS011;6521;50.498;8.474;2023-12-20T08:29:23;13.50;;;5.10;;
12906;SDS011;6521;50.498;8.474;2023-12-20T08:31:54;17.93;;;4.13;;
12906;SDS011;6521;50.498;8.474;2023-12-20T08:34:25;10.30;;;4.17;;
12906;SDS011;6521;50.498;8.474;2023-12-20T08:36:56;8.20;;;4.03;;
12906;SDS011;6521;50.498;8.474;2023-12-20T08:39:27;9.83;;;3.70;;
12906;SDS011;6521;50.498;8.474;2023-12-20T08:41:58;12.20;;;3.97;;
12906;SDS011;6521;50.498;8.474;2023-12-20T08:44:29;8.93;;;4.10;;
12906;SDS011;6521;50.498;8.474;2023-12-20T08:47:00;21.17;;;4.23;;
12906;SDS011;6521;50.498;8.474;2023-12-20T08:49:31;8.67;;;3.60;;
12906;SDS011;6521;50.498;8.474;2023-12-20T08:52:01;9.37;;;3.57;;
12906;SDS011;6521;50.498;8.474;2023-12-20T08:54:32;12.33;;;4.40;;
12906;SDS011;6521;50.498;8.474;2023-12-20T08:57:03;9.07;;;3.83;;
12906;SDS011;6521;50.498;8.474;2023-12-20T08:59:36;17.07;;;4.57;;
12906;SDS011;6521;50.498;8.474;2023-12-20T09:02:07;12.17;;;3.73;;
12906;SDS011;6521;50.498;8.474;2023-12-20T09:04:38;14.50;;;4.20;;
12906;SDS011;6521;50.498;8.474;2023-12-20T09:07:22;15.03;;;4.60;;
12906;SDS011;6521;50.498;8.474;2023-12-20T09:09:53;10.87;;;3.93;;
12906;SDS011;6521;50.498;8.474;2023-12-20T09:12:24;11.53;;;3.43;;
12906;SDS011;6521;50.498;8.474;2023-12-20T09:14:56;18.10;;;3.83;;
12906;SDS011;6521;50.498;8.474;2023-12-20T09:17:26;14.87;;;3.43;;
12906;SDS011;6521;50.498;8.474;2023-12-20T09:19:57;10.43;;;3.70;;
12906;SDS011;6521;50.498;8.474;2023-12-20T09:22:30;14.73;;;3.57;;
12906;SDS011;6521;50.498;8.474;2023-12-20T09:25:01;10.07;;;3.17;;
12906;SDS011;6521;50.498;8.474;2023-12-20T09:27:35;9.17;;;3.10;;
12906;SDS011;6521;50.498;8.474;2023-12-20T09:30:07;17.60;;;3.57;;
12906;SDS011;6521;50.498;8.474;2023-12-20T09:32:38;8.77;;;3.10;;
12906;SDS011;6521;50.498;8.474;2023-12-20T09:35:09;15.13;;;3.50;;
12906;SDS011;6521;50.498;8.474;2023-12-20T09:37:39;9.57;;;3.17;;
12906;SDS011;6521;50.498;8.474;2023-12-20T09:40:14;13.47;;;4.33;;
12906;SDS011;6521;50.498;8.474;2023-12-20T09:42:50;13.07;;;3.20;;
12906;SDS011;6521;50.498;8.474;2023-12-20T09:45:33;10.07;;;3.40;;
12906;SDS011;6521;50.498;8.474;2023-12-20T09:48:05;11.30;;;3.70;;
12906;SDS011;6521;50.498;8.474;2023-12-20T09:50:36;13.50;;;3.80;;
12906;SDS011;6521;50.498;8.474;2023-12-20T09:53:10;12.60;;;3.57;;
12906;SDS011;6521;50.498;8.474;2023-12-20T09:55:45;20.80;;;4.10;;
12906;SDS011;6521;50.498;8.474;2023-12-20T09:58:16;9.13;;;3.67;;
12906;SDS011;6521;50.498;8.474;2023-12-20T10:00:46;10.83;;;3.07;;
12906;SDS011;6521;50.498;8.474;2023-12-20T10:03:17;16.70;;;2.90;;
12906;SDS011;6521;50.498;8.474;2023-12-20T10:05:56;5.93;;;2.93;;
12906;SDS011;6521;50.498;8.474;2023-12-20T10:08:28;12.80;;;3.90;;
12906;SDS011;6521;50.498;8.474;2023-12-20T10:11:00;11.07;;;3.27;;
12906;SDS011;6521;50.498;8.474;2023-12-20T10:13:33;17.30;;;3.37;;
12906;SDS011;6521;50.498;8.474;2023-12-20T10:16:04;13.33;;;2.90;;
12906;SDS011;6521;50.498;8.474;2023-12-20T10:18:36;16.67;;;6.77;;
12906;SDS011;6521;50.498;8.474;2023-12-20T10:21:07;21.53;;;6.07;;
12906;SDS011;6521;50.498;8.474;2023-12-20T10:23:40;11.70;;;4.10;;
12906;SDS011;6521;50.498;8.474;2023-12-20T10:28:54;13.03;;;3.83;;
12906;SDS011;6521;50.498;8.474;2023-12-20T10:31:29;14.00;;;3.40;;
12906;SDS011;6521;50.498;8.474;2023-12-20T10:34:01;9.23;;;3.33;;
12906;SDS011;6521;50.498;8.474;2023-12-20T10:36:33;11.73;;;3.23;;
12906;SDS011;6521;50.498;8.474;2023-12-20T10:39:04;11.10;;;3.17;;
12906;SDS011;6521;50.498;8.474;2023-12-20T10:41:39;12.67;;;2.93;;
12906;SDS011;6521;50.498;8.474;2023-12-20T10:44:11;6.03;;;2.73;;
12906;SDS011;6521;50.498;8.474;2023-12-20T10:46:43;13.93;;;3.43;;
12906;SDS011;6521;50.498;8.474;2023-12-20T10:49:20;12.23;;;3.60;;
12906;SDS011;6521;50.498;8.474;2023-12-20T10:51:52;13.93;;;3.60;;
12906;SDS011;6521;50.498;8.474;2023-12-20T10:54:25;7.70;;;3.23;;
12906;SDS011;6521;50.498;8.474;2023-12-20T10:56:56;11.70;;;3.30;;
12906;SDS011;6521;50.498;8.474;2023-12-20T10:59:28;8.47;;;3.20;;
12906;SDS011;6521;50.498;8.474;2023-12-20T11:02:03;9.40;;;3.37;;
12906;SDS011;6521;50.498;8.474;2023-12-20T11:04:46;13.60;;;3.43;;
12906;SDS011;6521;50.498;8.474;2023-12-20T11:10:29;13.57;;;3.37;;
12906;SDS011;6521;50.498;8.474;2023-12-20T11:13:06;13.30;;;3.47;;
12906;SDS011;6521;50.498;8.474;2023-12-20T11:15:46;12.80;;;3.00;;
12906;SDS011;6521;50.498;8.474;2023-12-20T11:18:17;11.43;;;3.40;;
12906;SDS011;6521;50.498;8.474;2023-12-20T11:20:48;13.17;;;3.07;;
12906;SDS011;6521;50.498;8.474;2023-12-20T11:23:19;18.67;;;3.90;;
12906;SDS011;6521;50.498;8.474;2023-12-20T11:25:53;12.80;;;3.73;;
12906;SDS011;6521;50.498;8.474;2023-12-20T11:28:26;11.07;;;3.17;;
12906;SDS011;6521;50.498;8.474;2023-12-20T11:30:58;8.93;;;3.13;;
12906;SDS011;6521;50.498;8.474;2023-12-20T11:36:12;11.07;;;3.77;;
12906;SDS011;6521;50.498;8.474;2023-12-20T11:38:57;11.60;;;3.83;;
12906;SDS011;6521;50.498;8.474;2023-12-20T11:41:28;14.00;;;4.27;;
12906;SDS011;6521;50.498;8.474;2023-12-20T11:43:59;15.63;;;5.27;;
12906;SDS011;6521;50.498;8.474;2023-12-20T11:46:31;19.67;;;4.43;;
12906;SDS011;6521;50.498;8.474;2023-12-20T11:49:02;12.53;;;3.93;;
12906;SDS011;6521;50.498;8.474;2023-12-20T11:51:33;12.63;;;3.17;;
12906;SDS011;6521;50.498;8.474;2023-12-20T11:54:04;9.40;;;3.63;;
12906;SDS011;6521;50.498;8.474;2023-12-20T11:56:36;11.20;;;3.47;;
12906;SDS011;6521;50.498;8.474;2023-12-20T11:59:08;9.90;;;3.60;;
12906;SDS011;6521;50.498;8.474;2023-12-20T12:01:39;12.93;;;4.13;;
12906;SDS011;6521;50.498;8.474;2023-12-20T12:04:10;15.97;;;3.73;;
12906;SDS011;6521;50.498;8.474;2023-12-20T12:06:40;11.20;;;3.10;;
12906;SDS011;6521;50.498;8.474;2023-12-20T12:09:11;11.07;;;3.80;;
12906;SDS011;6521;50.498;8.474;2023-12-20T12:11:42;17.27;;;4.53;;
12906;SDS011;6521;50.498;8.474;2023-12-20T12:14:14;10.40;;;5.27;;
12906;SDS011;6521;50.498;8.474;2023-12-20T12:16:45;13.73;;;4.77;;
12906;SDS011;6521;50.498;8.474;2023-12-20T12:19:20;19.10;;;4.83;;
12906;SDS011;6521;50.498;8.474;2023-12-20T12:22:04;9.73;;;3.53;;
12906;SDS011;6521;50.498;8.474;2023-12-20T12:24:46;10.67;;;3.67;;
12906;SDS011;6521;50.498;8.474;2023-12-20T12:27:17;11.10;;;3.57;;
12906;SDS011;6521;50.498;8.474;2023-12-20T12:30:01;9.87;;;3.60;;
12906;SDS011;6521;50.498;8.474;2023-12-20T12:32:34;9.40;;;3.40;;
12906;SDS011;6521;50.498;8.474;2023-12-20T12:35:05;10.10;;;3.87;;
12906;SDS011;6521;50.498;8.474;2023-12-20T12:37:40;10.90;;;3.43;;
12906;SDS011;6521;50.498;8.474;2023-12-20T12:40:12;22.30;;;4.03;;
12906;SDS011;6521;50.498;8.474;2023-12-20T12:42:45;11.10;;;3.73;;
12906;SDS011;6521;50.498;8.474;2023-12-20T12:45:16;10.10;;;3.83;;
12906;SDS011;6521;50.498;8.474;2023-12-20T12:47:47;12.13;;;4.07;;
12906;SDS011;6521;50.498;8.474;2023-12-20T12:50:18;13.47;;;4.53;;
12906;SDS011;6521;50.498;8.474;2023-12-20T12:52:52;10.17;;;3.23;;
12906;SDS011;6521;50.498;8.474;2023-12-20T12:55:24;11.67;;;3.60;;
12906;SDS011;6521;50.498;8.474;2023-12-20T12:57:54;8.07;;;3.60;;
12906;SDS011;6521;50.498;8.474;2023-12-20T13:00:25;14.83;;;5.10;;
12906;SDS011;6521;50.498;8.474;2023-12-20T13:02:56;9.87;;;3.77;;
12906;SDS011;6521;50.498;8.474;2023-12-20T13:05:27;7.87;;;3.37;;
12906;SDS011;6521;50.498;8.474;2023-12-20T13:07:58;15.73;;;3.90;;
12906;SDS011;6521;50.498;8.474;2023-12-20T13:10:29;8.67;;;3.80;;
12906;SDS011;6521;50.498;8.474;2023-12-20T13:13:00;18.90;;;4.00;;
12906;SDS011;6521;50.498;8.474;2023-12-20T13:15:31;9.60;;;3.50;;
12906;SDS011;6521;50.498;8.474;2023-12-20T13:18:01;17.13;;;3.57;;
12906;SDS011;6521;50.498;8.474;2023-12-20T13:20:33;16.40;;;4.07;;
12906;SDS011;6521;50.498;8.474;2023-12-20T13:23:04;14.23;;;3.93;;
12906;SDS011;6521;50.498;8.474;2023-12-20T13:25:35;13.07;;;3.63;;
12906;SDS011;6521;50.498;8.474;2023-12-20T13:28:06;12.43;;;3.60;;
12906;SDS011;6521;50.498;8.474;2023-12-20T13:30:37;10.73;;;4.70;;
12906;SDS011;6521;50.498;8.474;2023-12-20T13:33:08;12.27;;;4.67;;
12906;SDS011;6521;50.498;8.474;2023-12-20T13:35:39;20.30;;;5.60;;
12906;SDS011;6521;50.498;8.474;2023-12-20T13:38:12;13.70;;;4.93;;
12906;SDS011;6521;50.498;8.474;2023-12-20T13:40:43;16.40;;;4.90;;
12906;SDS011;6521;50.498;8.474;2023-12-20T13:43:14;14.67;;;5.67;;
12906;SDS011;6521;50.498;8.474;2023-12-20T13:45:47;15.20;;;5.40;;
12906;SDS011;6521;50.498;8.474;2023-12-20T13:48:18;14.97;;;4.77;;
12906;SDS011;6521;50.498;8.474;2023-12-20T13:50:49;21.47;;;5.20;;
12906;SDS011;6521;50.498;8.474;2023-12-20T13:53:20;19.40;;;5.97;;
12906;SDS011;6521;50.498;8.474;2023-12-20T13:55:51;13.43;;;5.07;;
12906;SDS011;6521;50.498;8.474;2023-12-20T13:58:22;18.23;;;5.60;;
12906;SDS011;6521;50.498;8.474;2023-12-20T14:00:52;12.90;;;4.80;;
12906;SDS011;6521;50.498;8.474;2023-12-20T14:03:23;16.57;;;4.70;;
12906;SDS011;6521;50.498;8.474;2023-12-20T14:05:54;8.77;;;4.00;;
12906;SDS011;6521;50.498;8.474;2023-12-20T14:08:25;11.13;;;3.67;;
12906;SDS011;6521;50.498;8.474;2023-12-20T14:10:57;10.33;;;4.33;;
12906;SDS011;6521;50.498;8.474;2023-12-20T14:13:28;7.73;;;4.10;;
12906;SDS011;6521;50.498;8.474;2023-12-20T14:15:59;8.17;;;3.70;;
12906;SDS011;6521;50.498;8.474;2023-12-20T14:18:31;8.37;;;3.73;;
12906;SDS011;6521;50.498;8.474;2023-12-20T14:21:02;12.83;;;4.13;;
12906;SDS011;6521;50.498;8.474;2023-12-20T14:23:32;12.00;;;4.07;;
12906;SDS011;6521;50.498;8.474;2023-12-20T14:26:04;17.77;;;5.40;;
12906;SDS011;6521;50.498;8.474;2023-12-20T14:28:35;12.90;;;4.43;;
12906;SDS011;6521;50.498;8.474;2023-12-20T14:31:06;17.27;;;5.80;;
12906;SDS011;6521;50.498;8.474;2023-12-20T14:33:36;14.33;;;5.23;;
12906;SDS011;6521;50.498;8.474;2023-12-20T14:36:09;14.83;;;4.70;;
12906;SDS011;6521;50.498;8.474;2023-12-20T14:38:39;12.47;;;4.67;;
12906;SDS011;6521;50.498;8.474;2023-12-20T14:41:11;13.73;;;4.43;;
12906;SDS011;6521;50.498;8.474;2023-12-20T14:43:42;11.33;;;3.87;;
12906;SDS011;6521;50.498;8.474;2023-12-20T14:46:13;12.23;;;4.13;;
12906;SDS011;6521;50.498;8.474;2023-12-20T14:48:43;10.63;;;3.83;;
12906;SDS011;6521;50.498;8.474;2023-12-20T14:51:15;13.40;;;4.17;;
12906;SDS011;6521;50.498;8.474;2023-12-20T14:53:45;11.70;;;4.17;;
12906;SDS011;6521;50.498;8.474;2023-12-20T14:56:17;9.80;;;4.30;;
12906;SDS011;6521;50.498;8.474;2023-12-20T14:58:48;13.40;;;3.83;;
12906;SDS011;6521;50.498;8.474;2023-12-20T15:01:19;8.47;;;3.87;;
12906;SDS011;6521;50.498;8.474;2023-12-20T15:03:54;12.13;;;3.53;;
12906;SDS011;6521;50.498;8.474;2023-12-20T15:06:26;8.13;;;3.57;;
12906;SDS011;6521;50.498;8.474;2023-12-20T15:08:57;13.77;;;4.57;;
12906;SDS011;6521;50.498;8.474;2023-12-20T15:11:28;9.57;;;4.37;;
12906;SDS011;6521;50.498;8.474;2023-12-20T15:13:59;10.40;;;4.57;;
12906;SDS011;6521;50.498;8.474;2023-12-20T15:16:31;9.93;;;4.50;;
12906;SDS011;6521;50.498;8.474;2023-12-20T15:19:02;9.53;;;3.83;;
12906;SDS011;6521;50.498;8.474;2023-12-20T15:21:33;13.37;;;4.83;;
12906;SDS011;6521;50.498;8.474;2023-12-20T15:24:10;9.23;;;4.33;;
12906;SDS011;6521;50.498;8.474;2023-12-20T15:26:50;9.63;;;4.47;;